createdAt,value
2023-02-12T00:02:42.517Z,98690.69
2023-02-12T00:08:05.086Z,98673.16
2023-02-12T00:13:27.120Z,98686.78
2023-02-12T00:18:52.025Z,98679.75
2023-02-12T00:24:13.982Z,98689.41
2023-02-12T00:29:35.964Z,98674.38
2023-02-12T00:35:00.240Z,98684.59
2023-02-12T00:40:22.305Z,98687.00
2023-02-12T00:45:46.300Z,98687.56
2023-02-12T00:51:08.544Z,98690.22
2023-02-12T00:56:30.516Z,98684.94
2023-02-12T01:01:54.706Z,98698.69
2023-02-12T01:07:17.064Z,98657.56
2023-02-12T01:12:39.465Z,98690.59
2023-02-12T01:18:01.529Z,98695.94
2023-02-12T01:23:23.334Z,98695.84
2023-02-12T01:28:49.649Z,98678.84
2023-02-12T01:34:12.254Z,98717.84
2023-02-12T01:39:34.669Z,98695.78
2023-02-12T01:45:15.112Z,98717.97
2023-02-12T01:50:37.069Z,98706.41
2023-02-12T01:56:04.868Z,98730.56
2023-02-12T02:01:30.035Z,98744.66
2023-02-12T02:07:02.008Z,98751.06
2023-02-12T02:12:44.367Z,98743.78
2023-02-12T02:18:16.279Z,98761.53
2023-02-12T02:24:13.741Z,98768.16
2023-02-12T02:29:54.304Z,98759.41
2023-02-12T02:35:43.345Z,98778.72
2023-02-12T02:41:23.143Z,98757.69
2023-02-12T02:46:48.855Z,98773.69
2023-02-12T02:52:17.000Z,98770.16
2023-02-12T02:57:56.722Z,98792.72
2023-02-12T03:03:24.986Z,98804.56
2023-02-12T03:09:20.088Z,98802.75
2023-02-12T03:14:49.421Z,98804.50
2023-02-12T03:20:25.478Z,98827.28
2023-02-12T03:26:12.117Z,98827.56
2023-02-12T03:31:49.098Z,98845.09
2023-02-12T03:37:36.856Z,98842.50
2023-02-12T03:43:22.378Z,98845.16
2023-02-12T03:48:50.687Z,98880.44
2023-02-12T03:54:17.316Z,98838.97
2023-02-12T03:59:41.514Z,98881.22
2023-02-12T04:05:09.164Z,98867.50
2023-02-12T04:11:07.262Z,98894.31
2023-02-12T04:16:35.742Z,98917.81
2023-02-12T04:22:12.057Z,98929.50
2023-02-12T04:27:49.643Z,98911.75
2023-02-12T04:33:21.522Z,98945.25
2023-02-12T04:38:58.833Z,98935.94
2023-02-12T04:44:27.164Z,98952.81
2023-02-12T04:49:49.225Z,98964.28
2023-02-12T04:55:11.605Z,98966.31
2023-02-12T05:00:34.708Z,98999.59
2023-02-12T05:05:56.722Z,99009.56
2023-02-12T05:11:18.924Z,99005.06
2023-02-12T05:16:41.683Z,99024.13
2023-02-12T05:22:03.264Z,99003.22
2023-02-12T05:27:25.322Z,99036.13
2023-02-12T05:32:47.245Z,99040.69
2023-02-12T05:38:09.249Z,99055.63
2023-02-12T05:43:32.460Z,99088.09
2023-02-12T05:48:54.623Z,99085.91
2023-02-12T05:54:16.667Z,99095.28
2023-02-12T05:59:38.604Z,99091.00
2023-02-12T06:05:00.900Z,99112.47
2023-02-12T06:10:24.822Z,99099.44
2023-02-12T06:15:50.455Z,99143.75
2023-02-12T06:21:17.426Z,99126.28
2023-02-12T06:26:39.654Z,99138.09
2023-02-12T06:32:05.035Z,99161.34
2023-02-12T06:37:27.508Z,99181.72
2023-02-12T06:42:50.510Z,99189.91
2023-02-12T06:48:12.537Z,99185.31
2023-02-12T06:53:35.769Z,99196.94
2023-02-12T06:59:01.705Z,99234.00
2023-02-12T07:04:28.486Z,99209.69
2023-02-12T07:09:50.666Z,99234.56
2023-02-12T07:15:13.123Z,99256.69
2023-02-12T07:20:34.728Z,99254.34
2023-02-12T07:26:06.128Z,99280.41
2023-02-12T07:31:28.346Z,99290.59
2023-02-12T07:36:50.286Z,99303.63
2023-02-12T07:42:15.638Z,99303.00
2023-02-12T07:47:43.224Z,99323.78
2023-02-12T07:53:05.004Z,99339.00
2023-02-12T07:58:26.952Z,99345.16
2023-02-12T08:03:50.737Z,99356.84
2023-02-12T08:09:16.122Z,99367.22
2023-02-12T08:14:38.255Z,99369.72
2023-02-12T08:20:01.487Z,99372.28
2023-02-12T08:25:24.770Z,99387.75
2023-02-12T08:30:47.351Z,99392.34
2023-02-12T08:36:15.952Z,99387.22
2023-02-12T08:41:38.303Z,99419.25
2023-02-12T08:47:00.657Z,99427.09
2023-02-12T08:52:25.125Z,99449.25
2023-02-12T08:57:47.564Z,99469.97
2023-02-12T09:03:09.452Z,99460.38
2023-02-12T09:08:31.945Z,99471.97
2023-02-12T09:13:54.461Z,99497.09
2023-02-12T09:19:16.420Z,99483.44
2023-02-12T09:24:38.980Z,99529.88
2023-02-12T09:30:01.161Z,99527.25
2023-02-12T09:35:24.361Z,99516.38
2023-02-12T09:41:05.153Z,99541.59
2023-02-12T09:46:33.068Z,99561.50
2023-02-12T09:51:56.432Z,99563.34
2023-02-12T09:57:31.560Z,99573.16
2023-02-12T10:02:55.216Z,99582.75
2023-02-12T10:08:53.920Z,99596.63
2023-02-12T10:14:30.487Z,99604.59
2023-02-12T10:20:13.949Z,99596.97
2023-02-12T10:25:38.555Z,99622.56
2023-02-12T10:31:06.982Z,99626.22
2023-02-12T10:36:33.936Z,99633.38
2023-02-12T10:42:05.157Z,99669.91
2023-02-12T10:47:27.500Z,99675.03
2023-02-12T10:52:56.445Z,99677.31
2023-02-12T10:58:25.048Z,99667.25
2023-02-12T11:03:47.400Z,99664.69
2023-02-12T11:09:29.560Z,99680.56
2023-02-12T11:14:58.381Z,99706.56
2023-02-12T11:20:28.839Z,99738.56
2023-02-12T11:26:05.136Z,99713.06
2023-02-12T11:31:36.031Z,99744.31
2023-02-12T11:36:59.209Z,99769.84
2023-02-12T11:42:24.481Z,99756.31
2023-02-12T11:47:47.299Z,99781.47
2023-02-12T11:53:10.632Z,99780.84
2023-02-12T11:58:35.372Z,99788.78
2023-02-12T12:04:15.546Z,99816.34
2023-02-12T12:09:48.161Z,99835.22
2023-02-12T12:15:43.436Z,99846.97
2023-02-12T12:21:26.850Z,99828.34
2023-02-12T12:27:01.642Z,99852.47
2023-02-12T12:32:26.005Z,99832.41
2023-02-12T12:38:16.512Z,99841.72
2023-02-12T12:43:48.143Z,99842.72
2023-02-12T12:49:33.944Z,99866.03
2023-02-12T12:55:20.914Z,99850.19
2023-02-12T13:01:06.321Z,99886.66
2023-02-12T13:06:53.528Z,99942.19
2023-02-12T13:12:51.196Z,99946.19
2023-02-12T13:18:25.331Z,99948.97
2023-02-12T13:23:47.316Z,99975.69
2023-02-12T13:29:18.126Z,99942.13
2023-02-12T13:34:43.118Z,99978.56
2023-02-12T13:40:15.233Z,99977.69
2023-02-12T13:45:53.480Z,100000.72
2023-02-12T13:51:41.117Z,100016.69
2023-02-12T13:57:09.088Z,100000.47
2023-02-12T14:02:39.920Z,100035.50
2023-02-12T14:08:07.038Z,100013.19
2023-02-12T14:13:34.765Z,100003.31
2023-02-12T14:19:34.430Z,100067.31
2023-02-12T14:25:01.324Z,100080.56
2023-02-12T14:30:34.324Z,100075.09
2023-02-12T14:36:44.289Z,100065.69
2023-02-12T14:42:07.191Z,100099.34
2023-02-12T14:47:32.215Z,100108.59
2023-02-12T14:53:01.128Z,100134.13
2023-02-12T14:58:25.194Z,100138.03
2023-02-12T15:03:53.039Z,100136.16
2023-02-12T15:09:21.721Z,100149.63
2023-02-12T15:15:03.080Z,100152.78
2023-02-12T15:20:33.138Z,100167.25
2023-02-12T15:25:55.208Z,100166.16
2023-02-12T15:31:26.700Z,100178.31
2023-02-12T15:36:48.883Z,100188.00
2023-02-12T15:42:33.939Z,100192.78
2023-02-12T15:48:10.843Z,100188.50
2023-02-12T15:53:34.155Z,100196.13
2023-02-12T15:58:59.970Z,100204.00
2023-02-12T16:04:22.631Z,100205.66
2023-02-12T16:09:45.364Z,100161.50
2023-02-12T16:15:08.043Z,100163.81
2023-02-12T16:20:32.042Z,100164.56
2023-02-12T16:25:56.443Z,100227.94
2023-02-12T16:31:19.677Z,100205.06
2023-02-12T16:36:47.715Z,100231.19
2023-02-12T16:42:16.355Z,100234.03
2023-02-12T16:47:38.180Z,100241.84
2023-02-12T16:53:02.092Z,100194.09
2023-02-12T16:58:26.389Z,100232.19
2023-02-12T17:03:50.955Z,100211.16
2023-02-12T17:09:13.723Z,100213.91
2023-02-12T17:14:35.749Z,100211.53
2023-02-12T17:19:58.295Z,100212.81
2023-02-12T17:25:20.927Z,100214.47
2023-02-12T17:30:43.427Z,100246.44
2023-02-12T17:36:08.701Z,100244.28
2023-02-12T17:41:30.533Z,100234.50
2023-02-12T17:46:54.687Z,100236.94
2023-02-12T17:52:17.072Z,100252.78
2023-02-12T17:57:39.808Z,100234.66
2023-02-12T18:03:01.766Z,100247.75
2023-02-12T18:08:23.746Z,100219.72
2023-02-12T18:13:46.496Z,100257.59
2023-02-12T18:19:08.566Z,100241.84
2023-02-12T18:24:32.122Z,100237.78
2023-02-12T18:29:54.189Z,100204.84
2023-02-12T18:35:16.547Z,100248.63
2023-02-12T18:40:41.769Z,100246.81
2023-02-12T18:46:12.467Z,100246.69
2023-02-12T18:51:37.686Z,100218.50
2023-02-12T18:57:00.036Z,100239.28
2023-02-12T19:02:22.111Z,100258.06
2023-02-12T19:07:44.419Z,100238.47
2023-02-12T19:13:11.835Z,100236.97
2023-02-12T19:18:35.382Z,100220.66
2023-02-12T19:24:00.377Z,100247.72
2023-02-12T19:29:23.002Z,100245.47
2023-02-12T19:34:46.463Z,100246.56
2023-02-12T19:40:09.382Z,100240.59
2023-02-12T19:45:33.388Z,100232.63
2023-02-12T19:50:56.361Z,100237.75
2023-02-12T19:56:18.999Z,100260.91
2023-02-12T20:01:41.025Z,100243.59
2023-02-12T20:07:03.762Z,100249.75
2023-02-12T20:12:25.737Z,100230.66
2023-02-12T20:17:47.601Z,100250.22
2023-02-12T20:23:09.470Z,100251.41
2023-02-12T20:28:31.341Z,100257.00
2023-02-12T20:33:58.801Z,100255.78
2023-02-12T20:39:21.913Z,100244.75
2023-02-12T20:44:44.258Z,100225.34
2023-02-12T20:50:07.069Z,100203.91
2023-02-12T20:55:29.325Z,100226.41
2023-02-12T21:00:51.312Z,100249.75
2023-02-12T21:06:13.333Z,100233.91
2023-02-12T21:11:35.109Z,100233.41
2023-02-12T21:16:57.145Z,100236.03
2023-02-12T21:22:19.442Z,100227.81
2023-02-12T21:27:42.540Z,100223.75
2023-02-12T21:33:04.989Z,100211.63
2023-02-12T21:38:27.365Z,100214.06
2023-02-12T21:43:54.413Z,100208.66
2023-02-12T21:49:25.197Z,100215.88
2023-02-12T21:54:46.936Z,100209.00
2023-02-12T22:00:09.433Z,100169.44
2023-02-12T22:05:37.617Z,100185.06
2023-02-12T22:11:03.741Z,100163.25
2023-02-12T22:16:28.944Z,100153.47
2023-02-12T22:21:54.608Z,100154.56
2023-02-12T22:27:16.583Z,100127.75
2023-02-12T22:32:38.934Z,100161.44
2023-02-12T22:38:01.349Z,100153.53
2023-02-12T22:43:26.744Z,100127.34
2023-02-12T22:48:48.642Z,100112.38
2023-02-12T22:54:15.346Z,100141.66
2023-02-12T22:59:37.633Z,100126.09
2023-02-12T23:04:59.783Z,100133.66
2023-02-12T23:10:22.001Z,100118.13
2023-02-12T23:15:44.303Z,100127.59
2023-02-12T23:21:06.586Z,100116.44
2023-02-12T23:26:30.383Z,100113.19
2023-02-12T23:31:52.866Z,100110.50
2023-02-12T23:37:15.147Z,100131.53
2023-02-12T23:42:37.257Z,100108.88
2023-02-12T23:47:59.805Z,100097.84
2023-02-12T23:53:22.918Z,100097.91
2023-02-12T23:58:45.333Z,100090.13
